sensor_id;sensor_type;location;lat;lon;timestamp;P1;durP1;ratioP1;P2;durP2;ratioP2
33104;SDS011;19476;51.448;6.674;2023-07-29T00:01:43;2.08;;;0.90;;
33104;SDS011;19476;51.448;6.674;2023-07-29T00:04:09;1.77;;;0.93;;
33104;SDS011;19476;51.448;6.674;2023-07-29T00:06:42;1.75;;;0.90;;
33104;SDS011;19476;51.448;6.674;2023-07-29T00:09:23;1.27;;;0.80;;
33104;SDS011;19476;51.448;6.674;2023-07-29T00:11:57;1.55;;;0.93;;
33104;SDS011;19476;51.448;6.674;2023-07-29T00:17:08;2.00;;;0.82;;
33104;SDS011;19476;51.448;6.674;2023-07-29T00:19:35;2.17;;;1.20;;
33104;SDS011;19476;51.448;6.674;2023-07-29T00:22:01;2.10;;;1.23;;
33104;SDS011;19476;51.448;6.674;2023-07-29T00:24:27;2.72;;;1.00;;
33104;SDS011;19476;51.448;6.674;2023-07-29T00:26:53;3.80;;;1.23;;
33104;SDS011;19476;51.448;6.674;2023-07-29T00:29:23;2.40;;;0.95;;
33104;SDS011;19476;51.448;6.674;2023-07-29T00:31:49;1.90;;;0.90;;
33104;SDS011;19476;51.448;6.674;2023-07-29T00:34:15;3.38;;;1.20;;
33104;SDS011;19476;51.448;6.674;2023-07-29T00:36:45;1.80;;;1.23;;
33104;SDS011;19476;51.448;6.674;2023-07-29T00:39:11;1.85;;;0.98;;
33104;SDS011;19476;51.448;6.674;2023-07-29T00:41:40;2.45;;;1.30;;
33104;SDS011;19476;51.448;6.674;2023-07-29T00:44:08;2.38;;;1.00;;
33104;SDS011;19476;51.448;6.674;2023-07-29T00:46:34;1.73;;;1.00;;
33104;SDS011;19476;51.448;6.674;2023-07-29T00:49:03;2.08;;;1.02;;
33104;SDS011;19476;51.448;6.674;2023-07-29T00:51:32;3.15;;;1.23;;
33104;SDS011;19476;51.448;6.674;2023-07-29T00:53:58;2.10;;;1.10;;
33104;SDS011;19476;51.448;6.674;2023-07-29T00:56:34;1.83;;;1.20;;
33104;SDS011;19476;51.448;6.674;2023-07-29T00:59:01;1.80;;;1.10;;
33104;SDS011;19476;51.448;6.674;2023-07-29T01:01:27;2.03;;;1.23;;
33104;SDS011;19476;51.448;6.674;2023-07-29T01:03:54;2.55;;;1.20;;
33104;SDS011;19476;51.448;6.674;2023-07-29T01:06:23;1.88;;;1.10;;
33104;SDS011;19476;51.448;6.674;2023-07-29T01:09:01;3.05;;;1.25;;
33104;SDS011;19476;51.448;6.674;2023-07-29T01:11:41;2.42;;;1.20;;
33104;SDS011;19476;51.448;6.674;2023-07-29T01:14:32;1.63;;;0.90;;
33104;SDS011;19476;51.448;6.674;2023-07-29T01:17:54;3.05;;;1.30;;
33104;SDS011;19476;51.448;6.674;2023-07-29T01:20:25;2.13;;;1.20;;
33104;SDS011;19476;51.448;6.674;2023-07-29T01:22:51;1.58;;;0.93;;
33104;SDS011;19476;51.448;6.674;2023-07-29T01:25:28;2.25;;;0.90;;
33104;SDS011;19476;51.448;6.674;2023-07-29T01:27:54;1.42;;;0.80;;
33104;SDS011;19476;51.448;6.674;2023-07-29T01:30:20;1.25;;;0.95;;
33104;SDS011;19476;51.448;6.674;2023-07-29T01:32:56;2.55;;;0.98;;
33104;SDS011;19476;51.448;6.674;2023-07-29T01:35:47;1.33;;;0.88;;
33104;SDS011;19476;51.448;6.674;2023-07-29T01:38:19;3.47;;;1.02;;
33104;SDS011;19476;51.448;6.674;2023-07-29T01:40:50;1.40;;;0.82;;
33104;SDS011;19476;51.448;6.674;2023-07-29T01:43:17;1.58;;;0.90;;
33104;SDS011;19476;51.448;6.674;2023-07-29T01:45:48;1.75;;;0.95;;
33104;SDS011;19476;51.448;6.674;2023-07-29T01:48:14;1.75;;;1.20;;
33104;SDS011;19476;51.448;6.674;2023-07-29T01:50:40;1.65;;;1.00;;
33104;SDS011;19476;51.448;6.674;2023-07-29T01:53:06;1.55;;;0.90;;
33104;SDS011;19476;51.448;6.674;2023-07-29T01:55:31;1.67;;;0.95;;
33104;SDS011;19476;51.448;6.674;2023-07-29T01:57:57;1.17;;;1.00;;
33104;SDS011;19476;51.448;6.674;2023-07-29T02:00:29;1.15;;;0.85;;
33104;SDS011;19476;51.448;6.674;2023-07-29T02:02:55;1.40;;;0.90;;
33104;SDS011;19476;51.448;6.674;2023-07-29T02:05:21;1.17;;;0.85;;
33104;SDS011;19476;51.448;6.674;2023-07-29T02:07:47;2.88;;;1.08;;
33104;SDS011;19476;51.448;6.674;2023-07-29T02:10:13;1.10;;;0.77;;
33104;SDS011;19476;51.448;6.674;2023-07-29T02:12:49;1.35;;;0.80;;
33104;SDS011;19476;51.448;6.674;2023-07-29T02:15:15;1.55;;;1.00;;
33104;SDS011;19476;51.448;6.674;2023-07-29T02:17:42;2.00;;;0.82;;
33104;SDS011;19476;51.448;6.674;2023-07-29T02:20:08;0.95;;;0.80;;
33104;SDS011;19476;51.448;6.674;2023-07-29T02:22:35;1.80;;;0.85;;
33104;SDS011;19476;51.448;6.674;2023-07-29T02:25:13;1.50;;;0.75;;
33104;SDS011;19476;51.448;6.674;2023-07-29T02:27:43;1.90;;;0.82;;
33104;SDS011;19476;51.448;6.674;2023-07-29T02:30:09;1.83;;;0.93;;
33104;SDS011;19476;51.448;6.674;2023-07-29T02:32:35;2.08;;;0.88;;
33104;SDS011;19476;51.448;6.674;2023-07-29T02:35:01;1.48;;;0.90;;
33104;SDS011;19476;51.448;6.674;2023-07-29T02:37:27;0.88;;;0.73;;
33104;SDS011;19476;51.448;6.674;2023-07-29T02:40:04;1.38;;;0.90;;
33104;SDS011;19476;51.448;6.674;2023-07-29T02:42:31;1.85;;;1.02;;
33104;SDS011;19476;51.448;6.674;2023-07-29T02:44:58;1.40;;;0.90;;
33104;SDS011;19476;51.448;6.674;2023-07-29T02:47:24;1.75;;;0.85;;
33104;SDS011;19476;51.448;6.674;2023-07-29T02:49:49;2.20;;;0.82;;
33104;SDS011;19476;51.448;6.674;2023-07-29T02:52:15;2.72;;;1.08;;
33104;SDS011;19476;51.448;6.674;2023-07-29T02:54:50;2.72;;;1.10;;
33104;SDS011;19476;51.448;6.674;2023-07-29T02:57:16;1.10;;;0.75;;
33104;SDS011;19476;51.448;6.674;2023-07-29T02:59:42;2.78;;;1.25;;
33104;SDS011;19476;51.448;6.674;2023-07-29T03:02:08;2.92;;;1.20;;
33104;SDS011;19476;51.448;6.674;2023-07-29T03:04:34;1.45;;;0.98;;
33104;SDS011;19476;51.448;6.674;2023-07-29T03:07:00;2.42;;;1.08;;
33104;SDS011;19476;51.448;6.674;2023-07-29T03:09:26;1.65;;;0.80;;
33104;SDS011;19476;51.448;6.674;2023-07-29T03:12:09;1.75;;;1.20;;
33104;SDS011;19476;51.448;6.674;2023-07-29T03:14:35;3.45;;;1.17;;
33104;SDS011;19476;51.448;6.674;2023-07-29T03:17:13;1.33;;;0.90;;
33104;SDS011;19476;51.448;6.674;2023-07-29T03:19:45;2.00;;;1.05;;
33104;SDS011;19476;51.448;6.674;2023-07-29T03:22:11;1.83;;;1.15;;
33104;SDS011;19476;51.448;6.674;2023-07-29T03:24:45;2.08;;;1.10;;
33104;SDS011;19476;51.448;6.674;2023-07-29T03:27:11;1.75;;;0.90;;
33104;SDS011;19476;51.448;6.674;2023-07-29T03:29:36;1.42;;;1.20;;
33104;SDS011;19476;51.448;6.674;2023-07-29T03:32:03;1.35;;;0.93;;
33104;SDS011;19476;51.448;6.674;2023-07-29T03:34:29;3.88;;;1.17;;
33104;SDS011;19476;51.448;6.674;2023-07-29T03:36:55;1.65;;;1.02;;
33104;SDS011;19476;51.448;6.674;2023-07-29T03:39:21;2.15;;;0.90;;
33104;SDS011;19476;51.448;6.674;2023-07-29T03:41:48;1.80;;;1.00;;
33104;SDS011;19476;51.448;6.674;2023-07-29T03:44:14;2.47;;;0.90;;
33104;SDS011;19476;51.448;6.674;2023-07-29T03:46:40;1.95;;;1.08;;
33104;SDS011;19476;51.448;6.674;2023-07-29T03:49:06;1.00;;;0.73;;
33104;SDS011;19476;51.448;6.674;2023-07-29T03:51:31;2.13;;;0.82;;
33104;SDS011;19476;51.448;6.674;2023-07-29T03:53:57;2.25;;;0.95;;
33104;SDS011;19476;51.448;6.674;2023-07-29T03:56:23;1.60;;;0.98;;
33104;SDS011;19476;51.448;6.674;2023-07-29T03:58:49;1.60;;;1.08;;
33104;SDS011;19476;51.448;6.674;2023-07-29T04:01:15;1.30;;;0.90;;
33104;SDS011;19476;51.448;6.674;2023-07-29T04:03:40;1.92;;;0.90;;
33104;SDS011;19476;51.448;6.674;2023-07-29T04:06:06;1.77;;;0.80;;
33104;SDS011;19476;51.448;6.674;2023-07-29T04:08:32;2.67;;;0.90;;
33104;SDS011;19476;51.448;6.674;2023-07-29T04:10:58;2.20;;;0.80;;
33104;SDS011;19476;51.448;6.674;2023-07-29T04:13:24;1.35;;;0.82;;
33104;SDS011;19476;51.448;6.674;2023-07-29T04:15:50;1.10;;;0.80;;
33104;SDS011;19476;51.448;6.674;2023-07-29T04:18:16;2.78;;;1.20;;
33104;SDS011;19476;51.448;6.674;2023-07-29T04:20:42;1.95;;;1.00;;
33104;SDS011;19476;51.448;6.674;2023-07-29T04:23:08;3.10;;;1.17;;
33104;SDS011;19476;51.448;6.674;2023-07-29T04:25:34;2.47;;;1.30;;
33104;SDS011;19476;51.448;6.674;2023-07-29T04:28:00;3.40;;;1.75;;
33104;SDS011;19476;51.448;6.674;2023-07-29T04:30:28;2.85;;;1.70;;
33104;SDS011;19476;51.448;6.674;2023-07-29T04:32:54;2.33;;;1.52;;
33104;SDS011;19476;51.448;6.674;2023-07-29T04:35:20;3.60;;;1.70;;
33104;SDS011;19476;51.448;6.674;2023-07-29T04:37:45;2.30;;;1.20;;
33104;SDS011;19476;51.448;6.674;2023-07-29T04:40:13;3.55;;;1.67;;
33104;SDS011;19476;51.448;6.674;2023-07-29T04:42:39;4.78;;;1.90;;
33104;SDS011;19476;51.448;6.674;2023-07-29T04:45:06;2.97;;;1.90;;
33104;SDS011;19476;51.448;6.674;2023-07-29T04:47:32;2.85;;;1.83;;
33104;SDS011;19476;51.448;6.674;2023-07-29T04:50:00;3.28;;;1.73;;
33104;SDS011;19476;51.448;6.674;2023-07-29T04:52:26;3.33;;;2.05;;
33104;SDS011;19476;51.448;6.674;2023-07-29T04:54:55;5.07;;;2.17;;
33104;SDS011;19476;51.448;6.674;2023-07-29T04:57:21;3.20;;;2.10;;
33104;SDS011;19476;51.448;6.674;2023-07-29T04:59:47;2.95;;;1.80;;
33104;SDS011;19476;51.448;6.674;2023-07-29T05:02:13;3.40;;;1.85;;
33104;SDS011;19476;51.448;6.674;2023-07-29T05:04:40;2.60;;;1.73;;
33104;SDS011;19476;51.448;6.674;2023-07-29T05:07:05;3.92;;;1.60;;
33104;SDS011;19476;51.448;6.674;2023-07-29T05:09:31;3.10;;;1.55;;
33104;SDS011;19476;51.448;6.674;2023-07-29T05:11:57;4.28;;;2.00;;
33104;SDS011;19476;51.448;6.674;2023-07-29T05:14:25;4.68;;;1.65;;
33104;SDS011;19476;51.448;6.674;2023-07-29T05:16:51;2.33;;;1.58;;
33104;SDS011;19476;51.448;6.674;2023-07-29T05:19:17;2.10;;;1.27;;
33104;SDS011;19476;51.448;6.674;2023-07-29T05:21:43;3.10;;;1.42;;
33104;SDS011;19476;51.448;6.674;2023-07-29T05:24:09;2.10;;;1.20;;
33104;SDS011;19476;51.448;6.674;2023-07-29T05:26:35;1.90;;;1.38;;
33104;SDS011;19476;51.448;6.674;2023-07-29T05:29:01;2.60;;;1.38;;
33104;SDS011;19476;51.448;6.674;2023-07-29T05:31:27;2.70;;;1.65;;
33104;SDS011;19476;51.448;6.674;2023-07-29T05:33:54;3.00;;;1.50;;
33104;SDS011;19476;51.448;6.674;2023-07-29T05:36:20;2.67;;;1.40;;
33104;SDS011;19476;51.448;6.674;2023-07-29T05:38:49;2.60;;;1.50;;
33104;SDS011;19476;51.448;6.674;2023-07-29T05:41:17;2.88;;;1.55;;
33104;SDS011;19476;51.448;6.674;2023-07-29T05:43:43;2.63;;;1.20;;
33104;SDS011;19476;51.448;6.674;2023-07-29T05:46:09;2.28;;;1.23;;
33104;SDS011;19476;51.448;6.674;2023-07-29T05:48:35;3.78;;;1.25;;
33104;SDS011;19476;51.448;6.674;2023-07-29T05:51:04;2.38;;;1.30;;
33104;SDS011;19476;51.448;6.674;2023-07-29T05:53:33;2.13;;;1.20;;
33104;SDS011;19476;51.448;6.674;2023-07-29T05:55:59;2.47;;;1.40;;
33104;SDS011;19476;51.448;6.674;2023-07-29T05:58:24;2.08;;;1.30;;
33104;SDS011;19476;51.448;6.674;2023-07-29T06:00:53;3.03;;;1.17;;
33104;SDS011;19476;51.448;6.674;2023-07-29T06:03:28;2.65;;;1.13;;
33104;SDS011;19476;51.448;6.674;2023-07-29T06:05:57;2.75;;;1.42;;
33104;SDS011;19476;51.448;6.674;2023-07-29T06:08:23;2.03;;;1.13;;
33104;SDS011;19476;51.448;6.674;2023-07-29T06:10:48;2.42;;;1.13;;
33104;SDS011;19476;51.448;6.674;2023-07-29T06:13:15;1.88;;;1.30;;
33104;SDS011;19476;51.448;6.674;2023-07-29T06:15:40;2.78;;;1.27;;
33104;SDS011;19476;51.448;6.674;2023-07-29T06:18:06;1.67;;;0.93;;
33104;SDS011;19476;51.448;6.674;2023-07-29T06:20:32;2.58;;;1.35;;
33104;SDS011;19476;51.448;6.674;2023-07-29T06:22:58;4.10;;;1.10;;
33104;SDS011;19476;51.448;6.674;2023-07-29T06:25:24;2.47;;;1.00;;
33104;SDS011;19476;51.448;6.674;2023-07-29T06:28:12;2.20;;;1.20;;
33104;SDS011;19476;51.448;6.674;2023-07-29T06:30:40;7.38;;;1.50;;
33104;SDS011;19476;51.448;6.674;2023-07-29T06:33:06;1.80;;;1.07;;
33104;SDS011;19476;51.448;6.674;2023-07-29T06:38:18;1.50;;;0.80;;
33104;SDS011;19476;51.448;6.674;2023-07-29T06:40:47;2.67;;;1.02;;
33104;SDS011;19476;51.448;6.674;2023-07-29T06:43:13;2.33;;;1.10;;
33104;SDS011;19476;51.448;6.674;2023-07-29T06:45:39;2.65;;;1.02;;
33104;SDS011;19476;51.448;6.674;2023-07-29T06:48:05;3.75;;;1.42;;
33104;SDS011;19476;51.448;6.674;2023-07-29T06:50:31;1.55;;;0.80;;
33104;SDS011;19476;51.448;6.674;2023-07-29T06:53:03;1.38;;;0.80;;
33104;SDS011;19476;51.448;6.674;2023-07-29T06:58:14;1.38;;;0.77;;
33104;SDS011;19476;51.448;6.674;2023-07-29T07:00:40;1.63;;;1.08;;
33104;SDS011;19476;51.448;6.674;2023-07-29T07:03:06;2.33;;;1.23;;
33104;SDS011;19476;51.448;6.674;2023-07-29T07:05:31;1.42;;;0.90;;
33104;SDS011;19476;51.448;6.674;2023-07-29T07:07:58;1.77;;;0.82;;
33104;SDS011;19476;51.448;6.674;2023-07-29T07:10:24;1.75;;;0.80;;
33104;SDS011;19476;51.448;6.674;2023-07-29T07:12:50;1.30;;;0.80;;
33104;SDS011;19476;51.448;6.674;2023-07-29T07:15:16;1.15;;;0.63;;
33104;SDS011;19476;51.448;6.674;2023-07-29T07:17:42;1.52;;;0.80;;
33104;SDS011;19476;51.448;6.674;2023-07-29T07:20:08;1.65;;;0.90;;
33104;SDS011;19476;51.448;6.674;2023-07-29T07:22:34;2.17;;;0.80;;
33104;SDS011;19476;51.448;6.674;2023-07-29T07:25:00;1.27;;;0.70;;
33104;SDS011;19476;51.448;6.674;2023-07-29T07:27:27;1.15;;;0.70;;
33104;SDS011;19476;51.448;6.674;2023-07-29T07:29:53;1.83;;;0.80;;
33104;SDS011;19476;51.448;6.674;2023-07-29T07:32:19;1.02;;;0.52;;
33104;SDS011;19476;51.448;6.674;2023-07-29T07:34:45;1.98;;;0.80;;
33104;SDS011;19476;51.448;6.674;2023-07-29T07:37:10;1.23;;;0.70;;
33104;SDS011;19476;51.448;6.674;2023-07-29T07:39:37;1.27;;;0.80;;
33104;SDS011;19476;51.448;6.674;2023-07-29T07:42:03;1.33;;;0.70;;
33104;SDS011;19476;51.448;6.674;2023-07-29T07:44:29;0.93;;;0.50;;
33104;SDS011;19476;51.448;6.674;2023-07-29T07:46:55;1.20;;;0.88;;
33104;SDS011;19476;51.448;6.674;2023-07-29T07:49:21;2.15;;;0.70;;
33104;SDS011;19476;51.448;6.674;2023-07-29T07:52:02;1.47;;;0.83;;
33104;SDS011;19476;51.448;6.674;2023-07-29T07:54:29;1.05;;;0.70;;
33104;SDS011;19476;51.448;6.674;2023-07-29T07:56:55;1.40;;;0.70;;
33104;SDS011;19476;51.448;6.674;2023-07-29T07:59:21;1.10;;;0.70;;
33104;SDS011;19476;51.448;6.674;2023-07-29T08:01:54;1.00;;;0.50;;
33104;SDS011;19476;51.448;6.674;2023-07-29T08:04:20;2.33;;;0.75;;
33104;SDS011;19476;51.448;6.674;2023-07-29T08:06:46;1.13;;;0.65;;
33104;SDS011;19476;51.448;6.674;2023-07-29T08:09:12;1.70;;;0.90;;
33104;SDS011;19476;51.448;6.674;2023-07-29T08:11:38;1.10;;;0.60;;
33104;SDS011;19476;51.448;6.674;2023-07-29T08:14:03;1.52;;;0.50;;
33104;SDS011;19476;51.448;6.674;2023-07-29T08:16:29;3.97;;;0.65;;
33104;SDS011;19476;51.448;6.674;2023-07-29T08:18:55;1.05;;;0.60;;
33104;SDS011;19476;51.448;6.674;2023-07-29T08:21:21;1.42;;;0.70;;
33104;SDS011;19476;51.448;6.674;2023-07-29T08:23:47;1.20;;;0.50;;
33104;SDS011;19476;51.448;6.674;2023-07-29T08:26:13;1.33;;;0.50;;
33104;SDS011;19476;51.448;6.674;2023-07-29T08:28:39;1.60;;;0.40;;
33104;SDS011;19476;51.448;6.674;2023-07-29T08:31:05;0.95;;;0.60;;
33104;SDS011;19476;51.448;6.674;2023-07-29T08:33:31;0.63;;;0.40;;
33104;SDS011;19476;51.448;6.674;2023-07-29T08:35:59;0.80;;;0.40;;
33104;SDS011;19476;51.448;6.674;2023-07-29T08:38:24;1.00;;;0.60;;
33104;SDS011;19476;51.448;6.674;2023-07-29T08:41:04;0.73;;;0.50;;
33104;SDS011;19476;51.448;6.674;2023-07-29T08:43:34;1.13;;;0.50;;
33104;SDS011;19476;51.448;6.674;2023-07-29T08:46:04;0.98;;;0.57;;
33104;SDS011;19476;51.448;6.674;2023-07-29T08:48:36;0.90;;;0.40;;
33104;SDS011;19476;51.448;6.674;2023-07-29T08:51:05;1.30;;;0.52;;
33104;SDS011;19476;51.448;6.674;2023-07-29T08:53:34;0.52;;;0.30;;
33104;SDS011;19476;51.448;6.674;2023-07-29T08:56:01;0.52;;;0.35;;
33104;SDS011;19476;51.448;6.674;2023-07-29T08:58:27;0.70;;;0.50;;
33104;SDS011;19476;51.448;6.674;2023-07-29T09:00:54;0.98;;;0.63;;
33104;SDS011;19476;51.448;6.674;2023-07-29T09:03:20;0.68;;;0.30;;
33104;SDS011;19476;51.448;6.674;2023-07-29T09:05:46;0.95;;;0.55;;
33104;SDS011;19476;51.448;6.674;2023-07-29T09:08:13;1.05;;;0.57;;
33104;SDS011;19476;51.448;6.674;2023-07-29T09:10:39;0.85;;;0.60;;
33104;SDS011;19476;51.448;6.674;2023-07-29T09:13:06;0.88;;;0.50;;
33104;SDS011;19476;51.448;6.674;2023-07-29T09:15:33;1.30;;;0.60;;
33104;SDS011;19476;51.448;6.674;2023-07-29T09:18:08;1.10;;;0.60;;
33104;SDS011;19476;51.448;6.674;2023-07-29T09:20:36;1.45;;;0.88;;
33104;SDS011;19476;51.448;6.674;2023-07-29T09:23:02;0.90;;;0.68;;
33104;SDS011;19476;51.448;6.674;2023-07-29T09:25:28;0.82;;;0.55;;
33104;SDS011;19476;51.448;6.674;2023-07-29T09:28:08;0.98;;;0.70;;
33104;SDS011;19476;51.448;6.674;2023-07-29T09:30:37;1.38;;;0.60;;
33104;SDS011;19476;51.448;6.674;2023-07-29T09:33:07;2.72;;;0.95;;
33104;SDS011;19476;51.448;6.674;2023-07-29T09:35:35;1.50;;;0.77;;
33104;SDS011;19476;51.448;6.674;2023-07-29T09:38:02;1.35;;;0.70;;
33104;SDS011;19476;51.448;6.674;2023-07-29T09:40:38;2.35;;;0.70;;
33104;SDS011;19476;51.448;6.674;2023-07-29T09:43:06;0.90;;;0.60;;
33104;SDS011;19476;51.448;6.674;2023-07-29T09:45:33;1.23;;;0.73;;
33104;SDS011;19476;51.448;6.674;2023-07-29T09:48:00;0.90;;;0.60;;
33104;SDS011;19476;51.448;6.674;2023-07-29T09:50:28;2.63;;;0.63;;
33104;SDS011;19476;51.448;6.674;2023-07-29T09:52:55;2.95;;;0.80;;
33104;SDS011;19476;51.448;6.674;2023-07-29T09:55:23;1.10;;;0.57;;
33104;SDS011;19476;51.448;6.674;2023-07-29T09:57:56;0.90;;;0.63;;
33104;SDS011;19476;51.448;6.674;2023-07-29T10:00:25;0.90;;;0.60;;
33104;SDS011;19476;51.448;6.674;2023-07-29T10:02:51;0.93;;;0.55;;
33104;SDS011;19476;51.448;6.674;2023-07-29T10:05:18;1.00;;;0.80;;
33104;SDS011;19476;51.448;6.674;2023-07-29T10:07:47;0.93;;;0.50;;
33104;SDS011;19476;51.448;6.674;2023-07-29T10:10:17;1.52;;;0.70;;
33104;SDS011;19476;51.448;6.674;2023-07-29T10:12:44;1.40;;;0.65;;
33104;SDS011;19476;51.448;6.674;2023-07-29T10:15:11;0.73;;;0.50;;
33104;SDS011;19476;51.448;6.674;2023-07-29T10:17:38;1.15;;;0.60;;
33104;SDS011;19476;51.448;6.674;2023-07-29T10:20:05;1.75;;;0.70;;
33104;SDS011;19476;51.448;6.674;2023-07-29T10:22:39;1.23;;;0.70;;
33104;SDS011;19476;51.448;6.674;2023-07-29T10:25:18;1.05;;;0.68;;
33104;SDS011;19476;51.448;6.674;2023-07-29T10:27:47;1.48;;;0.73;;
33104;SDS011;19476;51.448;6.674;2023-07-29T10:30:18;3.33;;;0.80;;
33104;SDS011;19476;51.448;6.674;2023-07-29T10:32:45;1.45;;;0.70;;
33104;SDS011;19476;51.448;6.674;2023-07-29T10:35:11;1.23;;;0.70;;
33104;SDS011;19476;51.448;6.674;2023-07-29T10:37:38;1.60;;;0.70;;
33104;SDS011;19476;51.448;6.674;2023-07-29T10:40:10;1.50;;;0.68;;
33104;SDS011;19476;51.448;6.674;2023-07-29T10:42:37;0.80;;;0.60;;
33104;SDS011;19476;51.448;6.674;2023-07-29T10:45:18;1.13;;;0.68;;
33104;SDS011;19476;51.448;6.674;2023-07-29T10:47:45;2.38;;;0.57;;
33104;SDS011;19476;51.448;6.674;2023-07-29T10:50:19;1.60;;;0.60;;
33104;SDS011;19476;51.448;6.674;2023-07-29T10:52:50;1.67;;;0.60;;
33104;SDS011;19476;51.448;6.674;2023-07-29T10:55:29;1.30;;;0.70;;
33104;SDS011;19476;51.448;6.674;2023-07-29T10:58:04;1.58;;;0.73;;
33104;SDS011;19476;51.448;6.674;2023-07-29T11:00:34;1.67;;;0.70;;
33104;SDS011;19476;51.448;6.674;2023-07-29T11:03:07;1.00;;;0.63;;
33104;SDS011;19476;51.448;6.674;2023-07-29T11:08:17;1.65;;;0.70;;
33104;SDS011;19476;51.448;6.674;2023-07-29T11:11:07;1.23;;;0.65;;
33104;SDS011;19476;51.448;6.674;2023-07-29T11:13:36;1.65;;;0.90;;
33104;SDS011;19476;51.448;6.674;2023-07-29T11:16:05;0.77;;;0.60;;
33104;SDS011;19476;51.448;6.674;2023-07-29T11:18:32;1.20;;;0.60;;
33104;SDS011;19476;51.448;6.674;2023-07-29T11:23:32;1.45;;;0.70;;
33104;SDS011;19476;51.448;6.674;2023-07-29T11:25:59;3.17;;;0.90;;
33104;SDS011;19476;51.448;6.674;2023-07-29T11:28:26;1.38;;;0.80;;
33104;SDS011;19476;51.448;6.674;2023-07-29T11:30:53;1.38;;;0.82;;
33104;SDS011;19476;51.448;6.674;2023-07-29T11:33:24;1.77;;;1.00;;
33104;SDS011;19476;51.448;6.674;2023-07-29T11:35:51;1.40;;;0.80;;
33104;SDS011;19476;51.448;6.674;2023-07-29T11:38:18;1.65;;;0.90;;
33104;SDS011;19476;51.448;6.674;2023-07-29T11:41:01;2.38;;;0.90;;
33104;SDS011;19476;51.448;6.674;2023-07-29T11:43:34;1.30;;;0.82;;
33104;SDS011;19476;51.448;6.674;2023-07-29T11:46:01;2.75;;;1.13;;
33104;SDS011;19476;51.448;6.674;2023-07-29T11:48:27;2.38;;;1.00;;
33104;SDS011;19476;51.448;6.674;2023-07-29T11:50:56;1.67;;;0.80;;
33104;SDS011;19476;51.448;6.674;2023-07-29T11:53:22;1.65;;;0.60;;
33104;SDS011;19476;51.448;6.674;2023-07-29T11:55:53;1.70;;;0.80;;
33104;SDS011;19476;51.448;6.674;2023-07-29T11:58:20;1.45;;;0.73;;
33104;SDS011;19476;51.448;6.674;2023-07-29T12:00:47;1.15;;;0.63;;
33104;SDS011;19476;51.448;6.674;2023-07-29T12:03:14;1.27;;;0.80;;
33104;SDS011;19476;51.448;6.674;2023-07-29T12:05:41;1.45;;;0.90;;
33104;SDS011;19476;51.448;6.674;2023-07-29T12:08:07;2.13;;;0.90;;
33104;SDS011;19476;51.448;6.674;2023-07-29T12:10:34;1.02;;;0.73;;
33104;SDS011;19476;51.448;6.674;2023-07-29T12:13:00;1.17;;;0.70;;
33104;SDS011;19476;51.448;6.674;2023-07-29T12:15:28;1.58;;;0.90;;
33104;SDS011;19476;51.448;6.674;2023-07-29T12:17:55;2.00;;;0.80;;
33104;SDS011;19476;51.448;6.674;2023-07-29T12:20:22;0.77;;;0.60;;
33104;SDS011;19476;51.448;6.674;2023-07-29T12:22:52;1.98;;;0.77;;
33104;SDS011;19476;51.448;6.674;2023-07-29T12:25:19;2.92;;;1.10;;
33104;SDS011;19476;51.448;6.674;2023-07-29T12:27:45;1.60;;;0.90;;
33104;SDS011;19476;51.448;6.674;2023-07-29T12:30:10;1.38;;;0.77;;
33104;SDS011;19476;51.448;6.674;2023-07-29T12:32:46;2.45;;;1.23;;
33104;SDS011;19476;51.448;6.674;2023-07-29T12:35:12;2.15;;;0.73;;
33104;SDS011;19476;51.448;6.674;2023-07-29T12:37:38;1.08;;;0.70;;
33104;SDS011;19476;51.448;6.674;2023-07-29T12:40:07;5.63;;;1.03;;
33104;SDS011;19476;51.448;6.674;2023-07-29T12:42:45;1.40;;;0.90;;
33104;SDS011;19476;51.448;6.674;2023-07-29T12:45:11;1.63;;;0.88;;
33104;SDS011;19476;51.448;6.674;2023-07-29T12:47:37;1.15;;;0.70;;
33104;SDS011;19476;51.448;6.674;2023-07-29T12:50:03;1.30;;;0.70;;
33104;SDS011;19476;51.448;6.674;2023-07-29T12:52:28;1.23;;;0.82;;
33104;SDS011;19476;51.448;6.674;2023-07-29T12:54:54;1.40;;;0.88;;
33104;SDS011;19476;51.448;6.674;2023-07-29T12:57:20;1.85;;;1.05;;
33104;SDS011;19476;51.448;6.674;2023-07-29T12:59:45;1.60;;;0.90;;
33104;SDS011;19476;51.448;6.674;2023-07-29T13:02:11;1.67;;;0.73;;
33104;SDS011;19476;51.448;6.674;2023-07-29T13:04:37;1.90;;;1.10;;
33104;SDS011;19476;51.448;6.674;2023-07-29T13:07:03;2.38;;;0.90;;
33104;SDS011;19476;51.448;6.674;2023-07-29T13:09:30;1.25;;;0.85;;
33104;SDS011;19476;51.448;6.674;2023-07-29T13:11:56;1.40;;;0.70;;
33104;SDS011;19476;51.448;6.674;2023-07-29T13:14:21;1.48;;;0.70;;
33104;SDS011;19476;51.448;6.674;2023-07-29T13:16:47;1.60;;;1.00;;
33104;SDS011;19476;51.448;6.674;2023-07-29T13:19:13;1.60;;;1.00;;
33104;SDS011;19476;51.448;6.674;2023-07-29T13:21:39;1.42;;;0.70;;
33104;SDS011;19476;51.448;6.674;2023-07-29T13:24:06;1.88;;;1.02;;
33104;SDS011;19476;51.448;6.674;2023-07-29T13:26:31;1.38;;;0.77;;
33104;SDS011;19476;51.448;6.674;2023-07-29T13:28:57;1.15;;;0.80;;
33104;SDS011;19476;51.448;6.674;2023-07-29T13:31:23;2.45;;;1.27;;
33104;SDS011;19476;51.448;6.674;2023-07-29T13:33:50;1.75;;;0.90;;
33104;SDS011;19476;51.448;6.674;2023-07-29T13:36:15;2.00;;;1.00;;
33104;SDS011;19476;51.448;6.674;2023-07-29T13:38:41;1.27;;;0.90;;
33104;SDS011;19476;51.448;6.674;2023-07-29T13:41:07;2.92;;;1.02;;
33104;SDS011;19476;51.448;6.674;2023-07-29T13:43:33;1.65;;;1.00;;
33104;SDS011;19476;51.448;6.674;2023-07-29T13:45:58;0.80;;;0.60;;
33104;SDS011;19476;51.448;6.674;2023-07-29T13:48:24;2.15;;;1.00;;
33104;SDS011;19476;51.448;6.674;2023-07-29T13:50:50;2.22;;;0.98;;
33104;SDS011;19476;51.448;6.674;2023-07-29T13:57:17;2.67;;;1.15;;
33104;SDS011;19476;51.448;6.674;2023-07-29T13:59:46;5.20;;;1.70;;
33104;SDS011;19476;51.448;6.674;2023-07-29T14:02:12;1.87;;;1.17;;
33104;SDS011;19476;51.448;6.674;2023-07-29T14:04:39;4.15;;;1.15;;
33104;SDS011;19476;51.448;6.674;2023-07-29T14:07:26;2.08;;;0.90;;
33104;SDS011;19476;51.448;6.674;2023-07-29T14:10:17;1.60;;;0.85;;
33104;SDS011;19476;51.448;6.674;2023-07-29T14:12:43;1.92;;;0.80;;
33104;SDS011;19476;51.448;6.674;2023-07-29T14:15:09;3.63;;;1.15;;
33104;SDS011;19476;51.448;6.674;2023-07-29T14:17:35;2.15;;;1.20;;
33104;SDS011;19476;51.448;6.674;2023-07-29T14:20:01;1.40;;;0.88;;
33104;SDS011;19476;51.448;6.674;2023-07-29T14:22:30;2.40;;;1.10;;
33104;SDS011;19476;51.448;6.674;2023-07-29T14:27:32;2.17;;;1.02;;
33104;SDS011;19476;51.448;6.674;2023-07-29T14:29:58;2.72;;;1.00;;
33104;SDS011;19476;51.448;6.674;2023-07-29T14:33:11;1.58;;;0.98;;
33104;SDS011;19476;51.448;6.674;2023-07-29T14:46:52;2.08;;;1.10;;
33104;SDS011;19476;51.448;6.674;2023-07-29T14:49:20;2.17;;;1.13;;
33104;SDS011;19476;51.448;6.674;2023-07-29T14:52:08;4.50;;;1.17;;
33104;SDS011;19476;51.448;6.674;2023-07-29T14:54:34;1.80;;;1.10;;
33104;SDS011;19476;51.448;6.674;2023-07-29T14:59:36;3.40;;;0.90;;
33104;SDS011;19476;51.448;6.674;2023-07-29T15:02:03;1.75;;;0.90;;
33104;SDS011;19476;51.448;6.674;2023-07-29T15:04:45;2.53;;;1.10;;
33104;SDS011;19476;51.448;6.674;2023-07-29T15:07:11;1.70;;;0.90;;
33104;SDS011;19476;51.448;6.674;2023-07-29T15:09:37;2.53;;;1.13;;
33104;SDS011;19476;51.448;6.674;2023-07-29T15:12:08;2.33;;;1.10;;
33104;SDS011;19476;51.448;6.674;2023-07-29T15:14:34;1.70;;;1.00;;
33104;SDS011;19476;51.448;6.674;2023-07-29T15:17:00;2.63;;;1.05;;
33104;SDS011;19476;51.448;6.674;2023-07-29T15:19:26;1.25;;;0.93;;
33104;SDS011;19476;51.448;6.674;2023-07-29T15:21:54;2.10;;;1.27;;
33104;SDS011;19476;51.448;6.674;2023-07-29T15:24:20;2.58;;;1.17;;
33104;SDS011;19476;51.448;6.674;2023-07-29T15:26:46;1.40;;;0.90;;
33104;SDS011;19476;51.448;6.674;2023-07-29T15:29:12;3.35;;;1.40;;